sensor_id;sensor_type;location;lat;lon;timestamp;pressure;altitude;pressure_sealevel;temperature;humidity
79463;BME280;68931;47.286;18.756;2023-07-29T00:00:11;100155.09;;;18.63;83.63
79463;BME280;68931;47.286;18.756;2023-07-29T00:00:44;100182.84;;;18.78;83.66
79463;BME280;68931;47.286;18.756;2023-07-29T00:01:16;100181.47;;;18.74;83.47
79463;BME280;68931;47.286;18.756;2023-07-29T00:01:48;100154.84;;;18.57;84.04
79463;BME280;68931;47.286;18.756;2023-07-29T00:02:21;100190.41;;;18.73;84.07
79463;BME280;68931;47.286;18.756;2023-07-29T00:02:54;100179.41;;;18.68;84.03
79463;BME280;68931;47.286;18.756;2023-07-29T00:03:26;100175.06;;;18.67;84.40
79463;BME280;68931;47.286;18.756;2023-07-29T00:03:58;100185.69;;;18.67;84.53
79463;BME280;68931;47.286;18.756;2023-07-29T00:04:30;100178.19;;;18.63;84.53
79463;BME280;68931;47.286;18.756;2023-07-29T00:05:02;100196.31;;;18.67;84.53
79463;BME280;68931;47.286;18.756;2023-07-29T00:05:34;100171.75;;;18.56;84.77
79463;BME280;68931;47.286;18.756;2023-07-29T00:06:06;100181.25;;;18.58;84.79
79463;BME280;68931;47.286;18.756;2023-07-29T00:06:38;100189.09;;;18.60;85.06
79463;BME280;68931;47.286;18.756;2023-07-29T00:07:10;100185.84;;;18.56;84.86
79463;BME280;68931;47.286;18.756;2023-07-29T00:07:42;100181.81;;;18.52;84.78
79463;BME280;68931;47.286;18.756;2023-07-29T00:08:14;100185.19;;;18.54;84.60
79463;BME280;68931;47.286;18.756;2023-07-29T00:08:46;100183.19;;;18.56;84.60
79463;BME280;68931;47.286;18.756;2023-07-29T00:09:18;100187.41;;;18.59;84.89
79463;BME280;68931;47.286;18.756;2023-07-29T00:09:50;100186.56;;;18.58;84.70
79463;BME280;68931;47.286;18.756;2023-07-29T00:10:22;100195.38;;;18.59;84.52
79463;BME280;68931;47.286;18.756;2023-07-29T00:10:54;100184.06;;;18.57;84.63
79463;BME280;68931;47.286;18.756;2023-07-29T00:11:31;100190.50;;;18.54;84.93
79463;BME280;68931;47.286;18.756;2023-07-29T00:12:05;100187.97;;;18.53;84.87
79463;BME280;68931;47.286;18.756;2023-07-29T00:12:37;100188.81;;;18.53;84.68
79463;BME280;68931;47.286;18.756;2023-07-29T00:13:09;100183.78;;;18.50;84.89
79463;BME280;68931;47.286;18.756;2023-07-29T00:13:41;100180.44;;;18.48;85.07
79463;BME280;68931;47.286;18.756;2023-07-29T00:14:13;100177.38;;;18.43;85.70
79463;BME280;68931;47.286;18.756;2023-07-29T00:14:45;100172.06;;;18.43;85.16
79463;BME280;68931;47.286;18.756;2023-07-29T00:15:17;100191.06;;;18.48;85.53
79463;BME280;68931;47.286;18.756;2023-07-29T00:15:49;100179.91;;;18.45;85.40
79463;BME280;68931;47.286;18.756;2023-07-29T00:16:21;100188.13;;;18.51;85.27
79463;BME280;68931;47.286;18.756;2023-07-29T00:16:54;100186.59;;;18.49;85.22
79463;BME280;68931;47.286;18.756;2023-07-29T00:17:26;100186.59;;;18.49;85.62
79463;BME280;68931;47.286;18.756;2023-07-29T00:17:58;100188.25;;;18.50;85.04
79463;BME280;68931;47.286;18.756;2023-07-29T00:18:30;100181.59;;;18.46;84.95
79463;BME280;68931;47.286;18.756;2023-07-29T00:19:06;100194.69;;;18.57;84.85
79463;BME280;68931;47.286;18.756;2023-07-29T00:19:40;100187.69;;;18.56;84.49
79463;BME280;68931;47.286;18.756;2023-07-29T00:20:12;100191.16;;;18.56;84.77
79463;BME280;68931;47.286;18.756;2023-07-29T00:20:44;100185.31;;;18.53;84.44
79463;BME280;68931;47.286;18.756;2023-07-29T00:21:17;100174.84;;;18.51;84.42
79463;BME280;68931;47.286;18.756;2023-07-29T00:21:49;100191.91;;;18.58;84.67
79463;BME280;68931;47.286;18.756;2023-07-29T00:22:21;100184.91;;;18.57;84.67
79463;BME280;68931;47.286;18.756;2023-07-29T00:22:53;100184.63;;;18.51;84.99
79463;BME280;68931;47.286;18.756;2023-07-29T00:23:26;100190.78;;;18.51;84.85
79463;BME280;68931;47.286;18.756;2023-07-29T00:23:58;100189.94;;;18.51;84.98
79463;BME280;68931;47.286;18.756;2023-07-29T00:24:34;100186.44;;;18.50;85.29
79463;BME280;68931;47.286;18.756;2023-07-29T00:25:06;100195.13;;;18.52;85.05
79463;BME280;68931;47.286;18.756;2023-07-29T00:25:38;100193.72;;;18.48;85.01
79463;BME280;68931;47.286;18.756;2023-07-29T00:26:10;100186.72;;;18.47;84.93
79463;BME280;68931;47.286;18.756;2023-07-29T00:26:45;100189.69;;;18.44;84.75
79463;BME280;68931;47.286;18.756;2023-07-29T00:27:17;100193.06;;;18.46;84.89
79463;BME280;68931;47.286;18.756;2023-07-29T00:27:49;100191.38;;;18.45;84.83
79463;BME280;68931;47.286;18.756;2023-07-29T00:28:21;100195.53;;;18.48;84.59
79463;BME280;68931;47.286;18.756;2023-07-29T00:28:54;100192.03;;;18.47;84.85
79463;BME280;68931;47.286;18.756;2023-07-29T00:29:26;100191.38;;;18.45;84.76
79463;BME280;68931;47.286;18.756;2023-07-29T00:29:58;100187.31;;;18.41;84.88
79463;BME280;68931;47.286;18.756;2023-07-29T00:30:30;100196.69;;;18.45;84.89
79463;BME280;68931;47.286;18.756;2023-07-29T00:31:02;100191.94;;;18.39;84.87
79463;BME280;68931;47.286;18.756;2023-07-29T00:31:34;100189.44;;;18.37;84.86
79463;BME280;68931;47.286;18.756;2023-07-29T00:32:06;100194.75;;;18.37;85.07
79463;BME280;68931;47.286;18.756;2023-07-29T00:32:38;100187.22;;;18.33;85.11
79463;BME280;68931;47.286;18.756;2023-07-29T00:33:10;100182.78;;;18.24;85.83
79463;BME280;68931;47.286;18.756;2023-07-29T00:33:42;100190.97;;;18.30;85.81
79463;BME280;68931;47.286;18.756;2023-07-29T00:34:20;100180.56;;;18.19;85.80
79463;BME280;68931;47.286;18.756;2023-07-29T00:34:52;100195.34;;;18.22;85.63
79463;BME280;68931;47.286;18.756;2023-07-29T00:35:24;100192.41;;;18.25;85.61
79463;BME280;68931;47.286;18.756;2023-07-29T00:35:56;100191.72;;;18.23;85.93
79463;BME280;68931;47.286;18.756;2023-07-29T00:36:28;100195.22;;;18.23;85.75
79463;BME280;68931;47.286;18.756;2023-07-29T00:37:00;100180.56;;;18.19;85.77
79463;BME280;68931;47.286;18.756;2023-07-29T00:37:31;100195.34;;;18.22;85.43
79463;BME280;68931;47.286;18.756;2023-07-29T00:38:03;100185.69;;;18.21;86.00
79463;BME280;68931;47.286;18.756;2023-07-29T00:38:35;100195.06;;;18.25;86.08
79463;BME280;68931;47.286;18.756;2023-07-29T00:39:07;100188.22;;;18.22;85.78
79463;BME280;68931;47.286;18.756;2023-07-29T00:39:42;100194.69;;;18.20;85.96
79463;BME280;68931;47.286;18.756;2023-07-29T00:40:19;100183.03;;;18.21;85.89
79463;BME280;68931;47.286;18.756;2023-07-29T00:40:52;100188.53;;;18.19;85.91
79463;BME280;68931;47.286;18.756;2023-07-29T00:41:24;100182.78;;;18.14;86.03
79463;BME280;68931;47.286;18.756;2023-07-29T00:42:00;100199.53;;;18.24;86.12
79463;BME280;68931;47.286;18.756;2023-07-29T00:42:32;100164.78;;;18.08;85.75
79463;BME280;68931;47.286;18.756;2023-07-29T00:43:04;100201.09;;;18.27;85.37
79463;BME280;68931;47.286;18.756;2023-07-29T00:43:36;100189.38;;;18.20;85.74
79463;BME280;68931;47.286;18.756;2023-07-29T00:44:11;100192.81;;;18.30;85.62
79463;BME280;68931;47.286;18.756;2023-07-29T00:44:43;100189.06;;;18.23;85.72
79463;BME280;68931;47.286;18.756;2023-07-29T00:45:15;100183.34;;;18.18;85.53
79463;BME280;68931;47.286;18.756;2023-07-29T00:45:47;100183.34;;;18.18;85.66
79463;BME280;68931;47.286;18.756;2023-07-29T00:46:20;100187.09;;;18.25;85.44
79463;BME280;68931;47.286;18.756;2023-07-29T00:46:52;100186.97;;;18.26;85.63
79463;BME280;68931;47.286;18.756;2023-07-29T00:47:25;100182.25;;;18.20;85.48
79463;BME280;68931;47.286;18.756;2023-07-29T00:47:57;100190.59;;;18.25;85.79
79463;BME280;68931;47.286;18.756;2023-07-29T00:48:29;100191.44;;;18.26;85.55
79463;BME280;68931;47.286;18.756;2023-07-29T00:49:01;100191.44;;;18.26;85.86
79463;BME280;68931;47.286;18.756;2023-07-29T00:49:34;100180.69;;;18.18;85.91
79463;BME280;68931;47.286;18.756;2023-07-29T00:50:10;100184.19;;;18.18;85.84
79463;BME280;68931;47.286;18.756;2023-07-29T00:50:46;100186.28;;;18.15;86.01
79463;BME280;68931;47.286;18.756;2023-07-29T00:51:18;100188.09;;;18.14;86.17
79463;BME280;68931;47.286;18.756;2023-07-29T00:51:50;100189.91;;;18.14;86.08
79463;BME280;68931;47.286;18.756;2023-07-29T00:52:22;100195.53;;;18.11;86.13
79463;BME280;68931;47.286;18.756;2023-07-29T00:52:54;100185.06;;;18.09;85.81
79463;BME280;68931;47.286;18.756;2023-07-29T00:53:27;100170.25;;;18.07;85.95
79463;BME280;68931;47.286;18.756;2023-07-29T00:54:04;100190.22;;;18.11;85.92
79463;BME280;68931;47.286;18.756;2023-07-29T00:54:36;100184.91;;;18.11;86.05
79463;BME280;68931;47.286;18.756;2023-07-29T00:55:09;100188.09;;;18.14;86.19
79463;BME280;68931;47.286;18.756;2023-07-29T00:55:41;100185.31;;;18.16;86.04
79463;BME280;68931;47.286;18.756;2023-07-29T00:56:13;100187.00;;;18.17;85.65
79463;BME280;68931;47.286;18.756;2023-07-29T00:56:48;100181.97;;;18.14;85.47
79463;BME280;68931;47.286;18.756;2023-07-29T00:57:20;100179.31;;;18.14;85.32
79463;BME280;68931;47.286;18.756;2023-07-29T00:57:53;100182.53;;;18.17;85.03
79463;BME280;68931;47.286;18.756;2023-07-29T00:58:26;100187.69;;;18.19;85.00
79463;BME280;68931;47.286;18.756;2023-07-29T00:58:58;100177.34;;;18.16;85.21
79463;BME280;68931;47.286;18.756;2023-07-29T00:59:35;100182.09;;;18.12;85.41
79463;BME280;68931;47.286;18.756;2023-07-29T01:00:07;100180.44;;;18.11;85.48
79463;BME280;68931;47.286;18.756;2023-07-29T01:00:40;100183.09;;;18.11;85.74
79463;BME280;68931;47.286;18.756;2023-07-29T01:01:13;100177.78;;;18.11;85.83
79463;BME280;68931;47.286;18.756;2023-07-29T01:01:45;100178.91;;;18.09;85.88
79463;BME280;68931;47.286;18.756;2023-07-29T01:02:17;100188.41;;;18.11;85.83
79463;BME280;68931;47.286;18.756;2023-07-29T01:02:49;100188.25;;;18.13;85.30
79463;BME280;68931;47.286;18.756;2023-07-29T01:03:22;100143.31;;;17.92;85.51
79463;BME280;68931;47.286;18.756;2023-07-29T01:03:54;100180.28;;;18.13;85.40
79463;BME280;68931;47.286;18.756;2023-07-29T01:04:28;100191.59;;;18.15;85.33
79463;BME280;68931;47.286;18.756;2023-07-29T01:05:03;100181.13;;;18.13;85.20
79463;BME280;68931;47.286;18.756;2023-07-29T01:05:54;100187.28;;;18.14;85.62
79463;BME280;68931;47.286;18.756;2023-07-29T01:06:44;100182.94;;;18.13;85.40
79463;BME280;68931;47.286;18.756;2023-07-29T01:07:30;100186.44;;;18.13;85.31
79463;BME280;68931;47.286;18.756;2023-07-29T01:08:14;100188.41;;;18.11;85.48
79463;BME280;68931;47.286;18.756;2023-07-29T01:09:02;100170.53;;;18.03;85.21
79463;BME280;68931;47.286;18.756;2023-07-29T01:09:55;100171.53;;;18.02;85.48
79463;BME280;68931;47.286;18.756;2023-07-29T01:12:05;100186.19;;;17.97;85.29
79463;BME280;68931;47.286;18.756;2023-07-29T01:13:44;100182.31;;;17.91;85.90
79463;BME280;68931;47.286;18.756;2023-07-29T01:13:49;100183.97;;;17.92;85.98
79463;BME280;68931;47.286;18.756;2023-07-29T01:15:40;100177.84;;;17.82;86.06
79463;BME280;68931;47.286;18.756;2023-07-29T01:16:26;100183.84;;;17.84;85.86
79463;BME280;68931;47.286;18.756;2023-07-29T01:17:04;100185.38;;;17.87;86.03
79463;BME280;68931;47.286;18.756;2023-07-29T01:17:43;100183.16;;;17.82;86.14
79463;BME280;68931;47.286;18.756;2023-07-29T01:18:31;100183.44;;;17.79;86.21
79463;BME280;68931;47.286;18.756;2023-07-29T01:19:05;100178.25;;;17.78;86.26
79463;BME280;68931;47.286;18.756;2023-07-29T01:20:16;100178.56;;;17.75;86.46
79463;BME280;68931;47.286;18.756;2023-07-29T01:20:58;100189.84;;;17.77;86.66
79463;BME280;68931;47.286;18.756;2023-07-29T01:21:31;100179.22;;;17.77;86.04
79463;BME280;68931;47.286;18.756;2023-07-29T01:22:04;100188.19;;;17.76;86.68
79463;BME280;68931;47.286;18.756;2023-07-29T01:22:37;100178.25;;;17.68;86.47
79463;BME280;68931;47.286;18.756;2023-07-29T01:23:10;100175.63;;;17.68;86.35
79463;BME280;68931;47.286;18.756;2023-07-29T01:23:42;100191.69;;;17.76;86.54
79463;BME280;68931;47.286;18.756;2023-07-29T01:24:14;100184.84;;;17.74;86.78
79463;BME280;68931;47.286;18.756;2023-07-29T01:24:46;100186.78;;;17.72;86.69
79463;BME280;68931;47.286;18.756;2023-07-29T01:25:18;100185.25;;;17.69;86.70
79463;BME280;68931;47.286;18.756;2023-07-29T01:25:50;100188.88;;;17.68;87.00
79463;BME280;68931;47.286;18.756;2023-07-29T01:26:22;100184.84;;;17.64;87.01
79463;BME280;68931;47.286;18.756;2023-07-29T01:26:54;100180.53;;;17.63;87.09
79463;BME280;68931;47.286;18.756;2023-07-29T01:27:26;100185.94;;;17.61;87.10
79463;BME280;68931;47.286;18.756;2023-07-29T01:27:58;100188.72;;;17.60;87.00
79463;BME280;68931;47.286;18.756;2023-07-29T01:28:31;100166.00;;;17.48;86.92
79463;BME280;68931;47.286;18.756;2023-07-29T01:29:03;100142.94;;;17.39;87.46
79463;BME280;68931;47.286;18.756;2023-07-29T01:29:35;100184.16;;;17.62;86.91
79463;BME280;68931;47.286;18.756;2023-07-29T01:30:08;100180.75;;;17.60;86.83
79463;BME280;68931;47.286;18.756;2023-07-29T01:30:43;100175.75;;;17.57;86.91
79463;BME280;68931;47.286;18.756;2023-07-29T01:31:32;100150.91;;;17.39;86.98
79463;BME280;68931;47.286;18.756;2023-07-29T01:32:14;100184.69;;;17.56;87.09
79463;BME280;68931;47.286;18.756;2023-07-29T01:33:18;100188.72;;;17.60;87.11
79463;BME280;68931;47.286;18.756;2023-07-29T01:33:57;100188.72;;;17.60;86.94
79463;BME280;68931;47.286;18.756;2023-07-29T01:34:37;100177.56;;;17.56;86.60
79463;BME280;68931;47.286;18.756;2023-07-29T01:36:04;100179.50;;;17.54;87.16
79463;BME280;68931;47.286;18.756;2023-07-29T01:36:43;100170.00;;;17.52;87.36
79463;BME280;68931;47.286;18.756;2023-07-29T01:37:23;100187.47;;;17.54;87.29
79463;BME280;68931;47.286;18.756;2023-07-29T01:38:01;100182.16;;;17.54;87.38
79463;BME280;68931;47.286;18.756;2023-07-29T01:38:39;100188.88;;;17.58;87.29
79463;BME280;68931;47.286;18.756;2023-07-29T01:39:14;100182.56;;;17.59;87.10
79463;BME280;68931;47.286;18.756;2023-07-29T01:39:50;100185.53;;;17.56;86.62
79463;BME280;68931;47.286;18.756;2023-07-29T01:40:27;100178.94;;;17.51;86.69
79463;BME280;68931;47.286;18.756;2023-07-29T01:41:01;100184.56;;;17.48;86.75
79463;BME280;68931;47.286;18.756;2023-07-29T01:41:34;100170.84;;;17.43;87.25
79463;BME280;68931;47.286;18.756;2023-07-29T01:42:07;100172.66;;;17.42;86.90
79463;BME280;68931;47.286;18.756;2023-07-29T01:42:39;100177.97;;;17.42;87.23
79463;BME280;68931;47.286;18.756;2023-07-29T01:43:11;100175.63;;;17.39;87.06
79463;BME280;68931;47.286;18.756;2023-07-29T01:43:47;100185.25;;;17.40;87.11
79463;BME280;68931;47.286;18.756;2023-07-29T01:44:19;100177.31;;;17.40;87.41
79463;BME280;68931;47.286;18.756;2023-07-29T01:44:52;100173.22;;;17.36;87.47
79463;BME280;68931;47.286;18.756;2023-07-29T01:45:24;100177.31;;;17.40;87.40
79463;BME280;68931;47.286;18.756;2023-07-29T01:46:02;100187.75;;;17.42;86.87
79463;BME280;68931;47.286;18.756;2023-07-29T01:46:34;100181.63;;;17.41;86.80
79463;BME280;68931;47.286;18.756;2023-07-29T01:47:06;100187.75;;;17.42;86.61
79463;BME280;68931;47.286;18.756;2023-07-29T01:47:38;100178.41;;;17.38;86.44
79463;BME280;68931;47.286;18.756;2023-07-29T01:48:13;100170.03;;;17.33;86.59
79463;BME280;68931;47.286;18.756;2023-07-29T01:48:45;100175.19;;;17.34;86.80
79463;BME280;68931;47.286;18.756;2023-07-29T01:49:17;100172.81;;;17.31;87.55
79463;BME280;68931;47.286;18.756;2023-07-29T01:49:49;100171.41;;;17.27;87.75
79463;BME280;68931;47.286;18.756;2023-07-29T01:50:21;100172.97;;;17.29;87.74
79463;BME280;68931;47.286;18.756;2023-07-29T01:50:53;100178.97;;;17.32;87.98
79463;BME280;68931;47.286;18.756;2023-07-29T01:51:25;100182.28;;;17.34;88.01
79463;BME280;68931;47.286;18.756;2023-07-29T01:51:57;100184.69;;;17.37;87.87
79463;BME280;68931;47.286;18.756;2023-07-29T01:52:29;100164.16;;;17.29;87.82
79463;BME280;68931;47.286;18.756;2023-07-29T01:53:01;100175.47;;;17.31;87.48
79463;BME280;68931;47.286;18.756;2023-07-29T01:53:33;100178.41;;;17.38;87.43
79463;BME280;68931;47.286;18.756;2023-07-29T01:54:06;100173.38;;;17.35;87.57
79463;BME280;68931;47.286;18.756;2023-07-29T01:54:38;100174.78;;;17.39;87.50
79463;BME280;68931;47.286;18.756;2023-07-29T01:55:10;100176.59;;;17.38;87.27
79463;BME280;68931;47.286;18.756;2023-07-29T01:55:42;100179.78;;;17.42;87.27
79463;BME280;68931;47.286;18.756;2023-07-29T01:56:14;100179.13;;;17.40;87.26
79463;BME280;68931;47.286;18.756;2023-07-29T01:56:46;100175.88;;;17.36;87.48
79463;BME280;68931;47.286;18.756;2023-07-29T01:57:18;100157.44;;;17.25;87.40
79463;BME280;68931;47.286;18.756;2023-07-29T01:57:50;100164.03;;;17.30;87.71
79463;BME280;68931;47.286;18.756;2023-07-29T01:58:23;100176.72;;;17.37;87.60
79463;BME280;68931;47.286;18.756;2023-07-29T01:58:56;100177.56;;;17.37;87.45
79463;BME280;68931;47.286;18.756;2023-07-29T01:59:28;100142.53;;;17.14;87.49
79463;BME280;68931;47.286;18.756;2023-07-29T02:00:00;100165.00;;;17.29;87.73
79463;BME280;68931;47.286;18.756;2023-07-29T02:00:32;100182.28;;;17.34;87.59
79463;BME280;68931;47.286;18.756;2023-07-29T02:01:04;100163.47;;;17.27;87.59
79463;BME280;68931;47.286;18.756;2023-07-29T02:01:36;100186.38;;;17.38;87.45
79463;BME280;68931;47.286;18.756;2023-07-29T02:02:08;100181.19;;;17.36;87.29
79463;BME280;68931;47.286;18.756;2023-07-29T02:02:40;100182.88;;;17.37;87.34
79463;BME280;68931;47.286;18.756;2023-07-29T02:03:12;100150.50;;;17.14;87.24
79463;BME280;68931;47.286;18.756;2023-07-29T02:03:44;100184.94;;;17.34;87.63
79463;BME280;68931;47.286;18.756;2023-07-29T02:04:16;100180.66;;;17.33;87.75
79463;BME280;68931;47.286;18.756;2023-07-29T02:04:51;100181.63;;;17.32;87.88
79463;BME280;68931;47.286;18.756;2023-07-29T02:05:24;100185.13;;;17.32;88.04
79463;BME280;68931;47.286;18.756;2023-07-29T02:05:56;100186.09;;;17.31;88.09
79463;BME280;68931;47.286;18.756;2023-07-29T02:06:28;100186.22;;;17.29;88.14
79463;BME280;68931;47.286;18.756;2023-07-29T02:07:00;100181.19;;;17.26;88.30
79463;BME280;68931;47.286;18.756;2023-07-29T02:07:32;100182.28;;;17.24;88.10
79463;BME280;68931;47.286;18.756;2023-07-29T02:08:04;100171.53;;;17.16;88.44
79463;BME280;68931;47.286;18.756;2023-07-29T02:08:36;100188.03;;;17.29;88.37
79463;BME280;68931;47.286;18.756;2023-07-29T02:09:07;100187.59;;;17.24;88.94
79463;BME280;68931;47.286;18.756;2023-07-29T02:09:40;100168.75;;;17.17;88.83
79463;BME280;68931;47.286;18.756;2023-07-29T02:10:12;100176.16;;;17.14;89.03
79463;BME280;68931;47.286;18.756;2023-07-29T02:10:44;100186.78;;;17.23;88.89
79463;BME280;68931;47.286;18.756;2023-07-29T02:11:16;100173.34;;;17.25;89.02
79463;BME280;68931;47.286;18.756;2023-07-29T02:11:51;100179.81;;;17.22;89.47
79463;BME280;68931;47.286;18.756;2023-07-29T02:12:24;100180.63;;;17.23;89.29
79463;BME280;68931;47.286;18.756;2023-07-29T02:12:58;100183.28;;;17.23;89.16
79463;BME280;68931;47.286;18.756;2023-07-29T02:13:30;100180.78;;;17.21;89.06
79463;BME280;68931;47.286;18.756;2023-07-29T02:14:02;100176.31;;;17.22;88.96
79463;BME280;68931;47.286;18.756;2023-07-29T02:14:34;100185.25;;;17.21;89.09
79463;BME280;68931;47.286;18.756;2023-07-29T02:15:07;100184.13;;;17.23;88.86
79463;BME280;68931;47.286;18.756;2023-07-29T02:15:39;100182.84;;;17.18;89.13
79463;BME280;68931;47.286;18.756;2023-07-29T02:16:11;100183.56;;;17.20;88.82
79463;BME280;68931;47.286;18.756;2023-07-29T02:16:43;100177.28;;;17.21;88.51
79463;BME280;68931;47.286;18.756;2023-07-29T02:17:15;100181.75;;;17.20;88.19
79463;BME280;68931;47.286;18.756;2023-07-29T02:17:50;100184.53;;;17.19;88.69
79463;BME280;68931;47.286;18.756;2023-07-29T02:18:22;100177.00;;;17.14;88.09
79463;BME280;68931;47.286;18.756;2023-07-29T02:18:54;100174.06;;;17.17;88.54
79463;BME280;68931;47.286;18.756;2023-07-29T02:19:26;100181.03;;;17.18;88.43
79463;BME280;68931;47.286;18.756;2023-07-29T02:20:01;100183.97;;;17.15;88.39
79463;BME280;68931;47.286;18.756;2023-07-29T02:20:35;100177.28;;;17.11;88.34
79463;BME280;68931;47.286;18.756;2023-07-29T02:21:07;100167.91;;;17.07;88.26
79463;BME280;68931;47.286;18.756;2023-07-29T02:21:39;100171.69;;;17.05;88.56
79463;BME280;68931;47.286;18.756;2023-07-29T02:22:13;100184.50;;;17.09;88.45
79463;BME280;68931;47.286;18.756;2023-07-29T02:22:48;100171.25;;;17.00;88.63
79463;BME280;68931;47.286;18.756;2023-07-29T02:23:20;100175.84;;;17.07;88.76
79463;BME280;68931;47.286;18.756;2023-07-29T02:23:52;100191.22;;;17.13;88.42
79463;BME280;68931;47.286;18.756;2023-07-29T02:24:24;100176.69;;;17.08;88.68
79463;BME280;68931;47.286;18.756;2023-07-29T02:24:56;100193.03;;;17.13;88.53
79463;BME280;68931;47.286;18.756;2023-07-29T02:25:28;100187.28;;;17.08;88.57
79463;BME280;68931;47.286;18.756;2023-07-29T02:26:00;100171.94;;;17.02;88.64
79463;BME280;68931;47.286;18.756;2023-07-29T02:26:32;100187.28;;;17.08;88.46
79463;BME280;68931;47.286;18.756;2023-07-29T02:27:04;100199.31;;;17.12;88.70
79463;BME280;68931;47.286;18.756;2023-07-29T02:27:36;100174.34;;;17.05;88.45
79463;BME280;68931;47.286;18.756;2023-07-29T02:28:08;100194.00;;;17.12;88.11
79463;BME280;68931;47.286;18.756;2023-07-29T02:28:40;100147.81;;;16.85;88.44
79463;BME280;68931;47.286;18.756;2023-07-29T02:29:12;100187.28;;;17.08;88.54
79463;BME280;68931;47.286;18.756;2023-07-29T02:29:44;100193.72;;;17.05;88.22
79463;BME280;68931;47.286;18.756;2023-07-29T02:30:16;100185.91;;;17.04;88.11
79463;BME280;68931;47.286;18.756;2023-07-29T02:31:09;100184.81;;;17.06;87.71
79463;BME280;68931;47.286;18.756;2023-07-29T02:31:41;100186.63;;;17.06;87.55
79463;BME280;68931;47.286;18.756;2023-07-29T02:32:13;100189.94;;;17.08;87.85
79463;BME280;68931;47.286;18.756;2023-07-29T02:32:45;100190.09;;;17.06;87.94
79463;BME280;68931;47.286;18.756;2023-07-29T02:33:17;100181.03;;;17.09;87.66
79463;BME280;68931;47.286;18.756;2023-07-29T02:33:50;100181.16;;;17.07;87.46
79463;BME280;68931;47.286;18.756;2023-07-29T02:34:22;100186.19;;;17.10;87.51
79463;BME280;68931;47.286;18.756;2023-07-29T02:34:54;100149.19;;;16.89;87.65
79463;BME280;68931;47.286;18.756;2023-07-29T02:35:27;100177.66;;;17.07;87.63
79463;BME280;68931;47.286;18.756;2023-07-29T02:35:59;100194.56;;;17.06;87.54
79463;BME280;68931;47.286;18.756;2023-07-29T02:36:31;100170.81;;;16.95;87.88
79463;BME280;68931;47.286;18.756;2023-07-29T02:37:03;100186.19;;;17.01;87.89
79463;BME280;68931;47.286;18.756;2023-07-29T02:37:35;100176.84;;;16.97;87.95
79463;BME280;68931;47.286;18.756;2023-07-29T02:38:07;100185.63;;;16.97;88.61
79463;BME280;68931;47.286;18.756;2023-07-29T02:38:43;100151.25;;;16.76;87.59
79463;BME280;68931;47.286;18.756;2023-07-29T02:39:15;100182.97;;;16.97;88.46
79463;BME280;68931;47.286;18.756;2023-07-29T02:39:49;100192.56;;;16.98;88.25
79463;BME280;68931;47.286;18.756;2023-07-29T02:40:21;100191.75;;;16.98;88.24
79463;BME280;68931;47.286;18.756;2023-07-29T02:40:54;100193.16;;;17.02;87.92
79463;BME280;68931;47.286;18.756;2023-07-29T02:41:26;100192.31;;;17.01;87.72
79463;BME280;68931;47.286;18.756;2023-07-29T02:41:58;100188.97;;;16.99;87.76
79463;BME280;68931;47.286;18.756;2023-07-29T02:42:30;100193.41;;;16.99;87.55
79463;BME280;68931;47.286;18.756;2023-07-29T02:43:02;100186.72;;;16.95;87.36
79463;BME280;68931;47.286;18.756;2023-07-29T02:43:34;100183.94;;;16.96;87.58
79463;BME280;68931;47.286;18.756;2023-07-29T02:44:06;100193.28;;;17.00;87.37
79463;BME280;68931;47.286;18.756;2023-07-29T02:44:39;100185.63;;;16.97;87.47
79463;BME280;68931;47.286;18.756;2023-07-29T02:45:11;100190.22;;;16.95;87.46
79463;BME280;68931;47.286;18.756;2023-07-29T02:45:43;100176.69;;;16.88;87.43
79463;BME280;68931;47.286;18.756;2023-07-29T02:46:16;100193.72;;;16.96;87.82
79463;BME280;68931;47.286;18.756;2023-07-29T02:46:48;100190.34;;;16.93;87.83
79463;BME280;68931;47.286;18.756;2023-07-29T02:47:20;100181.28;;;16.86;87.67
79463;BME280;68931;47.286;18.756;2023-07-29T02:47:52;100191.31;;;16.92;87.59
79463;BME280;68931;47.286;18.756;2023-07-29T02:48:25;100191.06;;;16.96;87.58
79463;BME280;68931;47.286;18.756;2023-07-29T02:48:57;100190.34;;;16.93;87.59
79463;BME280;68931;47.286;18.756;2023-07-29T02:49:29;100193.97;;;16.92;87.20
79463;BME280;68931;47.286;18.756;2023-07-29T02:50:05;100204.44;;;16.94;87.85
79463;BME280;68931;47.286;18.756;2023-07-29T02:50:37;100191.19;;;16.94;87.59
79463;BME280;68931;47.286;18.756;2023-07-29T02:51:09;100194.81;;;16.93;87.60
79463;BME280;68931;47.286;18.756;2023-07-29T02:51:41;100193.97;;;16.92;87.60
79463;BME280;68931;47.286;18.756;2023-07-29T02:52:13;100189.09;;;16.88;87.75
79463;BME280;68931;47.286;18.756;2023-07-29T02:52:45;100184.19;;;16.83;87.44
79463;BME280;68931;47.286;18.756;2023-07-29T02:53:18;100195.50;;;16.85;87.75
79463;BME280;68931;47.286;18.756;2023-07-29T02:53:52;100190.03;;;16.77;87.62
79463;BME280;68931;47.286;18.756;2023-07-29T02:54:24;100198.00;;;16.87;87.97
79463;BME280;68931;47.286;18.756;2023-07-29T02:54:56;100199.97;;;16.85;87.96
79463;BME280;68931;47.286;18.756;2023-07-29T02:55:28;100199.25;;;16.83;87.96
79463;BME280;68931;47.286;18.756;2023-07-29T02:56:00;100202.59;;;16.85;88.34
79463;BME280;68931;47.286;18.756;2023-07-29T02:56:32;100187.66;;;16.74;88.42
79463;BME280;68931;47.286;18.756;2023-07-29T02:57:04;100206.78;;;16.78;88.36
79463;BME280;68931;47.286;18.756;2023-07-29T02:57:36;100204.97;;;16.78;88.21